Time;durP1;ratioP1;P1;durP2;ratioP2;P2;SDS_P1;SDS_P2;PMS_P1;PMS_P2;Temp;Humidity;BMP_temperature;BMP_pressure;BME280_temperature;BME280_humidity;BME280_pressure;Samples;Min_cycle;Max_cycle;Signal;HPM_P1;HPM_P2
2022/01/24 00:01:51;;;;;;;7.82;3.67;;;;;;;;;;5054164;28;20048;-75
2022/01/24 00:04:20;;;;;;;9.00;3.55;;;;;;;;;;5054143;28;20056;-72
2022/01/24 00:06:52;;;;;;;10.43;3.80;;;;;;;;;;5053695;28;20045;-74
2022/01/24 00:09:20;;;;;;;7.43;2.80;;;;;;;;;;5054230;28;20124;-71
2022/01/24 00:27:58;;;;;;;2.08;1.52;;;;;;;;;;5053602;28;20120;-75
2022/01/24 00:30:26;;;;;;;2.22;1.55;;;;;;;;;;5053433;28;20045;-72
2022/01/24 00:32:53;;;;;;;2.42;1.70;;;;;;;;;;5053574;28;20145;-72
2022/01/24 00:35:24;;;;;;;4.72;2.42;;;;;;;;;;5053620;28;20502;-75
2022/01/24 00:37:52;;;;;;;2.85;1.73;;;;;;;;;;5036225;28;20125;-71
2022/01/24 00:40:19;;;;;;;3.10;1.50;;;;;;;;;;5019375;28;20076;-74
2022/01/24 00:48:21;;;;;;;1.42;1.30;;;;;;;;;;5053584;28;20067;-71
2022/01/24 00:53:50;;;;;;;1.50;1.17;;;;;;;;;;5035780;28;20045;-74
2022/01/24 00:56:18;;;;;;;2.15;1.42;;;;;;;;;;5053531;28;20044;-72
2022/01/24 00:58:46;;;;;;;3.08;1.67;;;;;;;;;;5052869;28;20410;-71
2022/01/24 01:01:14;;;;;;;2.72;1.50;;;;;;;;;;5053487;28;20033;-71
2022/01/24 01:03:41;;;;;;;2.45;1.38;;;;;;;;;;5053119;28;20480;-71
2022/01/24 01:06:12;;;;;;;1.13;1.00;;;;;;;;;;5035686;28;20124;-75
2022/01/24 01:19:47;;;;;;;1.98;1.50;;;;;;;;;;5052862;28;20115;-72
2022/01/24 01:22:17;;;;;;;2.55;1.27;;;;;;;;;;5052693;28;20044;-72
2022/01/24 01:24:50;;;;;;;2.90;0.93;;;;;;;;;;5018427;28;20052;-75
2022/01/24 01:27:24;;;;;;;4.03;1.10;;;;;;;;;;5052694;28;20041;-71
2022/01/24 01:33:11;;;;;;;1.35;1.10;;;;;;;;;;5035052;28;20045;-72
2022/01/24 01:54:03;;;;;;;1.65;1.20;;;;;;;;;;5056597;28;20131;-72
2022/01/24 01:56:32;;;;;;;3.72;1.33;;;;;;;;;;5072893;28;20040;-72
2022/01/24 01:58:59;;;;;;;2.72;1.40;;;;;;;;;;5054849;28;20123;-74
2022/01/24 02:01:27;;;;;;;4.07;1.80;;;;;;;;;;5072772;28;20045;-74
2022/01/24 02:03:56;;;;;;;2.15;1.58;;;;;;;;;;5072339;28;20051;-74
2022/01/24 02:06:24;;;;;;;1.92;1.10;;;;;;;;;;5054434;28;20056;-74
2022/01/24 02:09:05;;;;;;;1.35;1.10;;;;;;;;;;5072847;28;20036;-74
2022/01/24 02:11:33;;;;;;;4.35;1.25;;;;;;;;;;5072172;28;20051;-75
2022/01/24 02:14:07;;;;;;;2.15;1.63;;;;;;;;;;5054466;28;20094;-72
2022/01/24 02:22:17;;;;;;;1.33;1.23;;;;;;;;;;5054579;28;20083;-71
2022/01/24 02:24:54;;;;;;;1.92;1.50;;;;;;;;;;5058046;28;20052;-71
2022/01/24 02:27:23;;;;;;;1.23;1.10;;;;;;;;;;5057718;28;20067;-72
2022/01/24 02:30:23;;;;;;;2.80;1.23;;;;;;;;;;5075975;28;20064;-71
2022/01/24 02:32:41;;;;;;;3.58;1.88;;;;;;;;;;5074360;28;20499;-75
2022/01/24 02:35:09;;;;;;;2.75;1.60;;;;;;;;;;5058432;28;20037;-75
2022/01/24 02:37:39;;;;;;;3.80;2.25;;;;;;;;;;5076018;28;20040;-74
2022/01/24 02:40:13;;;;;;;2.47;1.58;;;;;;;;;;5041649;28;20040;-74
2022/01/24 02:48:30;;;;;;;3.13;1.50;;;;;;;;;;5075595;28;20047;-71
2022/01/24 02:53:34;;;;;;;2.30;1.50;;;;;;;;;;5057621;28;20047;-71
2022/01/24 02:56:02;;;;;;;3.35;1.48;;;;;;;;;;5057767;28;20072;-74
2022/01/24 02:58:32;;;;;;;1.40;1.30;;;;;;;;;;5075466;28;20524;-72
2022/01/24 03:00:59;;;;;;;1.20;0.95;;;;;;;;;;5057571;28;20053;-74
2022/01/24 03:03:27;;;;;;;2.05;1.33;;;;;;;;;;5075366;28;20137;-75
2022/01/24 03:05:55;;;;;;;2.30;1.20;;;;;;;;;;5057179;28;20063;-75
2022/01/24 03:08:22;;;;;;;2.40;1.20;;;;;;;;;;5075010;28;20040;-74
2022/01/24 03:10:52;;;;;;;2.60;1.25;;;;;;;;;;5075524;28;20519;-74
2022/01/24 03:15:50;;;;;;;2.38;1.40;;;;;;;;;;5074726;28;20039;-72
2022/01/24 03:18:19;;;;;;;2.28;1.25;;;;;;;;;;5056810;28;20055;-73
2022/01/24 03:20:47;;;;;;;4.28;1.48;;;;;;;;;;5075208;28;20047;-75
2022/01/24 03:23:15;;;;;;;1.70;1.60;;;;;;;;;;5074344;28;20123;-74
2022/01/24 03:25:43;;;;;;;3.08;1.63;;;;;;;;;;5056802;28;20054;-74
2022/01/24 03:28:11;;;;;;;1.92;1.40;;;;;;;;;;5074833;28;20051;-75
2022/01/24 03:30:40;;;;;;;3.78;2.35;;;;;;;;;;5056524;28;20044;-75
2022/01/24 03:33:07;;;;;;;6.95;3.00;;;;;;;;;;5074181;28;20040;-75
2022/01/24 03:35:36;;;;;;;6.95;4.18;;;;;;;;;;5047027;28;20045;-75
2022/01/24 03:38:04;;;;;;;4.43;2.90;;;;;;;;;;5054709;28;20064;-72
2022/01/24 03:40:31;;;;;;;7.07;3.17;;;;;;;;;;5054560;28;20059;-75
2022/01/24 03:42:59;;;;;;;6.68;3.60;;;;;;;;;;5035964;28;20148;-71
2022/01/24 03:45:43;;;;;;;5.75;2.58;;;;;;;;;;5054163;28;20033;-75
2022/01/24 03:50:59;;;;;;;4.05;1.92;;;;;;;;;;5054011;28;20120;-71
2022/01/24 03:53:26;;;;;;;1.55;1.30;;;;;;;;;;5036559;28;20136;-72
2022/01/24 03:55:54;;;;;;;2.35;1.30;;;;;;;;;;5053778;28;20043;-74
2022/01/24 03:58:21;;;;;;;2.67;1.08;;;;;;;;;;5036501;28;20048;-75
2022/01/24 04:00:49;;;;;;;1.48;0.95;;;;;;;;;;5020116;28;20081;-74
2022/01/24 04:03:16;;;;;;;1.42;0.88;;;;;;;;;;5036140;28;20048;-74
2022/01/24 04:05:44;;;;;;;2.70;1.30;;;;;;;;;;5036609;28;20047;-75
2022/01/24 04:08:11;;;;;;;3.53;2.13;;;;;;;;;;5053644;28;20041;-72
2022/01/24 04:10:45;;;;;;;3.78;1.90;;;;;;;;;;5036302;28;20041;-74
2022/01/24 04:18:37;;;;;;;1.50;1.10;;;;;;;;;;5035886;28;20107;-75
2022/01/24 04:24:11;;;;;;;1.67;1.23;;;;;;;;;;5020412;28;20048;-72
2022/01/24 04:26:39;;;;;;;2.95;1.17;;;;;;;;;;5036082;28;20045;-72
2022/01/24 04:29:08;;;;;;;1.30;0.98;;;;;;;;;;5053904;28;20123;-74
2022/01/24 04:31:35;;;;;;;1.00;0.90;;;;;;;;;;5053398;28;20069;-72
2022/01/24 04:34:03;;;;;;;2.58;1.13;;;;;;;;;;5053884;28;20041;-75
2022/01/24 04:36:31;;;;;;;4.60;1.30;;;;;;;;;;5035562;28;20439;-75
2022/01/24 04:38:58;;;;;;;2.22;1.45;;;;;;;;;;5035725;28;20045;-72
2022/01/24 04:41:30;;;;;;;2.20;1.60;;;;;;;;;;5035792;28;20507;-71
2022/01/24 04:54:42;;;;;;;1.45;1.35;;;;;;;;;;5035434;28;20218;-72
2022/01/24 04:57:10;;;;;;;1.77;1.67;;;;;;;;;;5053078;28;20411;-74
2022/01/24 04:59:39;;;;;;;5.22;1.20;;;;;;;;;;5053303;28;20497;-71
2022/01/24 05:02:08;;;;;;;3.25;0.98;;;;;;;;;;5053488;28;20494;-75
2022/01/24 05:04:36;;;;;;;3.13;1.02;;;;;;;;;;5018967;28;20167;-75
2022/01/24 05:07:04;;;;;;;3.67;1.33;;;;;;;;;;5034851;28;20045;-71
2022/01/24 05:09:37;;;;;;;2.65;1.20;;;;;;;;;;5035238;28;20047;-71
2022/01/24 05:25:44;;;;;;;3.15;0.85;;;;;;;;;;5052836;28;20055;-72
2022/01/24 05:28:14;;;;;;;3.45;1.48;;;;;;;;;;5035444;28;20219;-75
2022/01/24 05:30:43;;;;;;;3.83;0.98;;;;;;;;;;5035057;28;20048;-75
2022/01/24 05:33:11;;;;;;;4.50;1.15;;;;;;;;;;5053122;28;20045;-72
2022/01/24 05:35:39;;;;;;;2.88;1.60;;;;;;;;;;5052886;28;20373;-71
2022/01/24 05:38:07;;;;;;;2.58;1.65;;;;;;;;;;5052915;28;20489;-72
2022/01/24 05:40:34;;;;;;;2.28;1.35;;;;;;;;;;5035200;28;20037;-74
2022/01/24 05:43:02;;;;;;;5.47;1.58;;;;;;;;;;5052535;28;20102;-75
2022/01/24 05:45:29;;;;;;;3.47;2.60;;;;;;;;;;5052418;28;20322;-75
2022/01/24 05:47:57;;;;;;;4.07;2.42;;;;;;;;;;5034760;28;20033;-74
2022/01/24 05:50:24;;;;;;;10.48;4.05;;;;;;;;;;5052422;28;20399;-74
2022/01/24 05:52:52;;;;;;;16.45;7.70;;;;;;;;;;5052557;28;20045;-74
2022/01/24 05:55:19;;;;;;;6.22;4.28;;;;;;;;;;5051820;28;20041;-75
2022/01/24 05:57:47;;;;;;;3.78;2.28;;;;;;;;;;5056245;28;20037;-71
2022/01/24 06:00:20;;;;;;;6.47;1.83;;;;;;;;;;5055859;28;20044;-75
2022/01/24 06:02:48;;;;;;;4.28;2.38;;;;;;;;;;5023027;28;20136;-71
2022/01/24 06:05:15;;;;;;;7.57;2.08;;;;;;;;;;5036525;28;20042;-74
2022/01/24 06:07:43;;;;;;;7.03;1.85;;;;;;;;;;5036327;28;20366;-76
2022/01/24 06:10:11;;;;;;;9.40;2.10;;;;;;;;;;5018960;28;20497;-76
2022/01/24 06:12:53;;;;;;;3.95;1.77;;;;;;;;;;5018475;28;20057;-71
2022/01/24 06:15:21;;;;;;;4.43;1.65;;;;;;;;;;5036233;28;20401;-70
2022/01/24 06:17:49;;;;;;;4.05;2.05;;;;;;;;;;5035057;28;20048;-70
2022/01/24 06:20:16;;;;;;;8.38;3.83;;;;;;;;;;5053434;28;20423;-76
2022/01/24 06:22:44;;;;;;;3.60;2.15;;;;;;;;;;5038444;28;20076;-70
2022/01/24 06:25:13;;;;;;;14.32;9.02;;;;;;;;;;5055954;28;20072;-71
2022/01/24 06:27:43;;;;;;;5.80;3.78;;;;;;;;;;5055377;28;20492;-77
2022/01/24 06:30:11;;;;;;;6.28;2.80;;;;;;;;;;5055374;28;20045;-76
2022/01/24 06:32:41;;;;;;;11.50;2.55;;;;;;;;;;5055241;28;20045;-77
2022/01/24 06:35:11;;;;;;;6.07;2.35;;;;;;;;;;5055061;28;20044;-77
2022/01/24 06:37:39;;;;;;;5.72;2.20;;;;;;;;;;5055955;28;20079;-71
2022/01/24 06:40:07;;;;;;;4.82;2.38;;;;;;;;;;5034468;28;20060;-72
2022/01/24 06:42:35;;;;;;;8.52;3.03;;;;;;;;;;5036750;28;20404;-70
2022/01/24 06:45:03;;;;;;;4.50;2.58;;;;;;;;;;5055030;28;20037;-76
2022/01/24 06:47:31;;;;;;;5.47;3.35;;;;;;;;;;5055307;28;20507;-76
2022/01/24 06:49:59;;;;;;;6.22;2.90;;;;;;;;;;5054062;28;20064;-70
2022/01/24 06:52:26;;;;;;;9.93;2.85;;;;;;;;;;5054278;28;20072;-77
2022/01/24 06:54:54;;;;;;;5.82;2.88;;;;;;;;;;5034328;28;20047;-71
2022/01/24 06:57:21;;;;;;;10.20;4.90;;;;;;;;;;5054945;28;20065;-76
2022/01/24 06:59:49;;;;;;;6.70;3.53;;;;;;;;;;5037250;28;20055;-77
2022/01/24 07:02:16;;;;;;;10.52;4.07;;;;;;;;;;5055409;28;20455;-75
2022/01/24 07:04:44;;;;;;;6.55;2.63;;;;;;;;;;5037367;28;20049;-78
2022/01/24 07:07:13;;;;;;;10.73;4.68;;;;;;;;;;5036803;28;20411;-70
2022/01/24 07:09:42;;;;;;;14.43;6.60;;;;;;;;;;5054437;28;20048;-71
2022/01/24 07:12:10;;;;;;;9.57;4.55;;;;;;;;;;5054148;28;20259;-76
2022/01/24 07:14:40;;;;;;;6.88;4.18;;;;;;;;;;5054353;28;20033;-76
2022/01/24 07:19:44;;;;;;;13.15;4.20;;;;;;;;;;5054141;28;20033;-75
2022/01/24 07:22:12;;;;;;;6.50;3.85;;;;;;;;;;5019507;28;20052;-76
2022/01/24 07:24:40;;;;;;;8.60;4.20;;;;;;;;;;5019962;28;20080;-76
2022/01/24 07:27:08;;;;;;;11.07;4.13;;;;;;;;;;5054190;28;20488;-74
2022/01/24 07:29:35;;;;;;;9.95;4.43;;;;;;;;;;5053625;28;20040;-70
2022/01/24 07:32:03;;;;;;;9.40;4.72;;;;;;;;;;5054127;28;20045;-75
2022/01/24 07:34:30;;;;;;;9.95;5.13;;;;;;;;;;5037062;28;20086;-76
2022/01/24 07:36:58;;;;;;;13.88;4.88;;;;;;;;;;5036944;28;20068;-75
2022/01/24 07:39:25;;;;;;;7.15;3.90;;;;;;;;;;5036462;28;20077;-72
2022/01/24 07:41:53;;;;;;;5.68;3.17;;;;;;;;;;5054566;28;20045;-72
2022/01/24 07:44:21;;;;;;;7.72;3.50;;;;;;;;;;5054185;28;20128;-72
2022/01/24 07:46:49;;;;;;;6.18;3.35;;;;;;;;;;5036416;28;20495;-72
2022/01/24 07:49:17;;;;;;;9.43;3.40;;;;;;;;;;5036543;28;20114;-72
2022/01/24 07:51:45;;;;;;;5.93;3.45;;;;;;;;;;5036688;28;20091;-76
2022/01/24 07:54:13;;;;;;;6.13;3.00;;;;;;;;;;5053947;28;20127;-76
2022/01/24 07:56:40;;;;;;;5.88;3.20;;;;;;;;;;5035887;28;20048;-72
2022/01/24 07:59:08;;;;;;;7.47;4.22;;;;;;;;;;5053968;28;20091;-72
2022/01/24 08:01:35;;;;;;;6.95;3.13;;;;;;;;;;5035898;28;20051;-73
2022/01/24 08:04:03;;;;;;;4.10;2.95;;;;;;;;;;5035824;28;20453;-72
2022/01/24 08:06:31;;;;;;;5.68;3.17;;;;;;;;;;5019656;28;20071;-76
2022/01/24 08:08:59;;;;;;;5.57;3.53;;;;;;;;;;5053654;28;20128;-76
2022/01/24 08:11:27;;;;;;;5.65;3.72;;;;;;;;;;5053944;28;20045;-73
2022/01/24 08:13:55;;;;;;;8.10;4.10;;;;;;;;;;5035658;28;20067;-76
2022/01/24 08:16:24;;;;;;;4.55;3.67;;;;;;;;;;5053583;28;20041;-73
2022/01/24 08:18:52;;;;;;;6.90;4.30;;;;;;;;;;5035561;28;20048;-73
2022/01/24 08:21:20;;;;;;;11.80;4.05;;;;;;;;;;5054108;28;20063;-76
2022/01/24 08:23:49;;;;;;;6.40;3.00;;;;;;;;;;5053596;28;20040;-72
2022/01/24 08:26:18;;;;;;;8.45;3.15;;;;;;;;;;5053529;28;20041;-72
2022/01/24 08:28:46;;;;;;;6.78;3.33;;;;;;;;;;5035953;28;20051;-76
2022/01/24 08:31:13;;;;;;;5.32;3.15;;;;;;;;;;5035263;28;20140;-76
2022/01/24 08:33:41;;;;;;;7.82;3.75;;;;;;;;;;5053275;28;20064;-72
2022/01/24 08:36:09;;;;;;;7.65;4.57;;;;;;;;;;5035865;28;20033;-73
2022/01/24 08:38:36;;;;;;;8.60;4.85;;;;;;;;;;5053445;28;20037;-73
2022/01/24 08:41:15;;;;;;;13.50;5.75;;;;;;;;;;5053307;28;20051;-73
2022/01/24 08:46:17;;;;;;;8.23;4.25;;;;;;;;;;5035331;28;20102;-72
2022/01/24 08:48:47;;;;;;;8.80;6.60;;;;;;;;;;5035199;28;20045;-77
2022/01/24 08:51:16;;;;;;;14.25;6.95;;;;;;;;;;5053070;28;20041;-76
2022/01/24 08:54:02;;;;;;;9.30;6.07;;;;;;;;;;5053104;28;20492;-70
2022/01/24 08:56:29;;;;;;;5.25;4.05;;;;;;;;;;5053281;28;20033;-76
2022/01/24 08:58:57;;;;;;;6.28;3.90;;;;;;;;;;5052658;28;20036;-70
2022/01/24 09:01:25;;;;;;;6.38;4.53;;;;;;;;;;5035387;28;20064;-75
2022/01/24 09:03:53;;;;;;;5.93;4.00;;;;;;;;;;5035067;28;20141;-76
2022/01/24 09:06:22;;;;;;;9.73;4.10;;;;;;;;;;5035128;28;20534;-75
2022/01/24 09:08:57;;;;;;;9.43;3.80;;;;;;;;;;5034858;28;20071;-72
2022/01/24 09:11:28;;;;;;;9.20;3.42;;;;;;;;;;5035220;28;20079;-73
2022/01/24 09:13:56;;;;;;;3.80;2.10;;;;;;;;;;5052708;28;20099;-76
2022/01/24 09:16:24;;;;;;;3.20;1.70;;;;;;;;;;5052593;28;20431;-73
2022/01/24 09:18:52;;;;;;;1.40;1.30;;;;;;;;;;5052631;28;20503;-72
2022/01/24 09:21:20;;;;;;;3.42;1.83;;;;;;;;;;5052818;28;20059;-76
2022/01/24 09:23:48;;;;;;;5.32;2.20;;;;;;;;;;5052527;28;20037;-74
2022/01/24 09:26:16;;;;;;;5.35;2.08;;;;;;;;;;5034916;28;20047;-74
2022/01/24 09:28:44;;;;;;;8.52;3.50;;;;;;;;;;5052391;28;20051;-74
2022/01/24 09:31:13;;;;;;;4.07;2.72;;;;;;;;;;5054674;28;20503;-71
2022/01/24 09:33:41;;;;;;;3.67;2.75;;;;;;;;;;5059085;28;20041;-74
2022/01/24 09:36:09;;;;;;;5.72;3.15;;;;;;;;;;5041544;28;20041;-75
2022/01/24 09:38:37;;;;;;;4.80;3.55;;;;;;;;;;5041290;28;20420;-70
2022/01/24 09:41:10;;;;;;;6.55;3.65;;;;;;;;;;5033390;28;20052;-71
2022/01/24 09:43:37;;;;;;;11.80;6.38;;;;;;;;;;5058913;28;20039;-73
2022/01/24 09:46:05;;;;;;;5.68;3.50;;;;;;;;;;5059122;28;20052;-74
2022/01/24 09:48:33;;;;;;;3.22;2.92;;;;;;;;;;5058835;28;20036;-71
2022/01/24 09:51:01;;;;;;;4.18;2.58;;;;;;;;;;5041253;28;20048;-74
2022/01/24 09:53:29;;;;;;;3.90;2.60;;;;;;;;;;5041875;28;20144;-71
2022/01/24 09:56:02;;;;;;;3.45;2.58;;;;;;;;;;5058597;28;20046;-70
2022/01/24 09:58:29;;;;;;;;;;;;;;;;;;5059321;28;20037;-74
2022/01/24 10:00:58;;;;;;;3.17;2.42;;;;;;;;;;5059054;28;19921;-70
2022/01/24 10:03:26;;;;;;;2.58;2.05;;;;;;;;;;5040901;28;20404;-77
2022/01/24 10:06:09;;;;;;;2.63;2.20;;;;;;;;;;5043701;28;20060;-70
2022/01/24 10:08:37;;;;;;;2.55;2.10;;;;;;;;;;5058869;28;20271;-70
2022/01/24 10:16:43;;;;;;;3.13;2.30;;;;;;;;;;5058783;28;20045;-80
2022/01/24 10:19:16;;;;;;;3.90;3.00;;;;;;;;;;5058649;28;20095;-80
2022/01/24 10:22:02;;;;;;;3.72;2.50;;;;;;;;;;5043390;28;20099;-80
2022/01/24 10:24:40;;;;;;;9.43;2.25;;;;;;;;;;5040906;28;20454;-76
2022/01/24 10:27:08;;;;;;;9.70;2.17;;;;;;;;;;5058809;28;20080;-79
2022/01/24 10:29:55;;;;;;;4.57;1.70;;;;;;;;;;5058816;28;20037;-80
2022/01/24 10:32:33;;;;;;;8.13;2.63;;;;;;;;;;5058978;28;20036;-79
2022/01/24 10:35:22;;;;;;;7.38;2.30;;;;;;;;;;5058706;28;20037;-77
2022/01/24 10:37:54;;;;;;;9.30;2.65;;;;;;;;;;5058930;28;20045;-78
2022/01/24 10:40:34;;;;;;;4.27;2.33;;;;;;;;;;5058546;28;20064;-77
2022/01/24 10:43:17;;;;;;;4.38;2.10;;;;;;;;;;5037195;28;20761;-75
2022/01/24 10:45:45;;;;;;;9.30;2.40;;;;;;;;;;5055912;28;20156;-79
2022/01/24 10:48:14;;;;;;;3.25;2.40;;;;;;;;;;5037945;28;20136;-79
2022/01/24 10:50:43;;;;;;;6.10;2.47;;;;;;;;;;5055954;28;20041;-76
2022/01/24 10:53:15;;;;;;;3.75;2.47;;;;;;;;;;5037765;28;20041;-79
2022/01/24 10:55:47;;;;;;;7.50;2.20;;;;;;;;;;5037245;28;20045;-76
2022/01/24 10:58:18;;;;;;;6.43;2.47;;;;;;;;;;5055263;28;20075;-76
2022/01/24 11:00:47;;;;;;;4.88;2.30;;;;;;;;;;5037485;28;20044;-77
2022/01/24 11:03:22;;;;;;;7.35;2.63;;;;;;;;;;5037650;28;20053;-76
2022/01/24 11:05:51;;;;;;;7.15;3.10;;;;;;;;;;5021176;28;20041;-79
2022/01/24 11:08:18;;;;;;;5.43;2.40;;;;;;;;;;5055083;28;20124;-79
2022/01/24 11:10:47;;;;;;;4.47;2.47;;;;;;;;;;5055295;28;20047;-78
2022/01/24 11:13:21;;;;;;;5.28;3.00;;;;;;;;;;5054661;28;20053;-79
2022/01/24 11:15:55;;;;;;;;;;;;;;;;;;5055590;28;20045;-79
2022/01/24 11:18:30;;;;;;;5.13;2.30;;;;;;;;;;5054604;28;19921;-78
2022/01/24 11:21:11;;;;;;;4.70;2.17;;;;;;;;;;5054977;28;20047;-75
2022/01/24 11:23:43;;;;;;;9.73;2.78;;;;;;;;;;5054700;28;20079;-79
2022/01/24 11:26:14;;;;;;;6.60;2.58;;;;;;;;;;5055055;28;20044;-79
2022/01/24 11:28:44;;;;;;;4.75;2.55;;;;;;;;;;5054888;28;20218;-79
2022/01/24 11:31:18;;;;;;;6.70;2.97;;;;;;;;;;5054596;28;20492;-78
2022/01/24 11:33:53;;;;;;;7.95;2.78;;;;;;;;;;5055126;28;20040;-78
2022/01/24 11:36:35;;;;;;;6.93;2.70;;;;;;;;;;5020416;28;20515;-78
2022/01/24 11:39:04;;;;;;;11.23;2.25;;;;;;;;;;5037311;28;20079;-77
2022/01/24 11:41:39;;;;;;;5.38;2.60;;;;;;;;;;5054770;28;20423;-78
2022/01/24 11:44:16;;;;;;;6.50;2.10;;;;;;;;;;5054434;28;20492;-79
2022/01/24 11:46:48;;;;;;;6.30;2.78;;;;;;;;;;5054726;28;20037;-76
2022/01/24 11:49:23;;;;;;;7.22;2.83;;;;;;;;;;5054476;28;20404;-78
2022/01/24 11:51:53;;;;;;;5.75;2.65;;;;;;;;;;5037147;28;20036;-77
2022/01/24 11:54:55;;;;;;;5.60;2.80;;;;;;;;;;5054270;28;20041;-77
2022/01/24 11:57:25;;;;;;;9.30;3.03;;;;;;;;;;5054151;28;20041;-79
2022/01/24 12:00:05;;;;;;;8.70;3.70;;;;;;;;;;5054273;28;20080;-78
2022/01/24 12:02:40;;;;;;;6.93;3.42;;;;;;;;;;5054253;28;20507;-77
2022/01/24 12:05:15;;;;;;;15.75;3.58;;;;;;;;;;5054028;28;20044;-77
2022/01/24 12:07:52;;;;;;;7.68;3.30;;;;;;;;;;5050336;28;20064;-79
2022/01/24 12:12:51;;;;;;;10.10;3.55;;;;;;;;;;5053373;28;20041;-79
2022/01/24 12:15:39;;;;;;;12.65;4.25;;;;;;;;;;5053969;28;20032;-78
2022/01/24 12:18:11;;;;;;;7.72;3.75;;;;;;;;;;5053847;28;20041;-77
2022/01/24 12:20:40;;;;;;;8.90;3.83;;;;;;;;;;5050165;28;20040;-76
2022/01/24 12:23:24;;;;;;;12.60;3.97;;;;;;;;;;5053381;28;20097;-79
2022/01/24 12:26:07;;;;;;;7.43;3.65;;;;;;;;;;5052593;28;20500;-77
2022/01/24 12:28:42;;;;;;;10.80;4.25;;;;;;;;;;5052253;28;20040;-76
2022/01/24 12:31:37;;;;;;;10.25;3.92;;;;;;;;;;5053103;28;20033;-77
2022/01/24 12:34:08;;;;;;;12.23;4.93;;;;;;;;;;5033453;28;20123;-79
2022/01/24 12:36:39;;;;;;;7.07;4.78;;;;;;;;;;5052962;28;20548;-78
2022/01/24 12:39:10;;;;;;;12.57;5.13;;;;;;;;;;5053089;28;20124;-76
2022/01/24 12:41:41;;;;;;;16.23;6.05;;;;;;;;;;5052863;28;20488;-79
2022/01/24 12:46:37;;;;;;;9.60;4.32;;;;;;;;;;5052411;28;20041;-79
2022/01/24 12:49:06;;;;;;;17.23;5.05;;;;;;;;;;5052481;28;20079;-77
2022/01/24 12:51:38;;;;;;;15.82;4.53;;;;;;;;;;5052566;28;20045;-79
2022/01/24 12:54:06;;;;;;;19.60;6.03;;;;;;;;;;5052497;28;20043;-79
2022/01/24 12:56:35;;;;;;;11.50;4.78;;;;;;;;;;5052683;28;20508;-76
2022/01/24 12:59:02;;;;;;;12.63;5.90;;;;;;;;;;5052673;28;20044;-77
2022/01/24 13:01:31;;;;;;;11.15;5.10;;;;;;;;;;5051856;28;20051;-76
2022/01/24 13:04:13;;;;;;;13.23;4.45;;;;;;;;;;5052850;28;20091;-79
2022/01/24 13:06:46;;;;;;;11.00;4.90;;;;;;;;;;5051898;28;20043;-79
2022/01/24 13:09:16;;;;;;;10.45;4.32;;;;;;;;;;5049742;28;20036;-79
2022/01/24 13:11:52;;;;;;;10.32;4.65;;;;;;;;;;5048712;28;20072;-78
2022/01/24 13:25:10;;;;;;;14.05;4.25;;;;;;;;;;5037972;28;20041;-79
2022/01/24 13:27:46;;;;;;;12.13;4.50;;;;;;;;;;5041473;28;20080;-79
2022/01/24 13:30:22;;;;;;;8.48;3.30;;;;;;;;;;5037050;28;20124;-77
2022/01/24 13:32:56;;;;;;;13.13;3.90;;;;;;;;;;5038418;28;20042;-77
2022/01/24 13:35:27;;;;;;;8.98;4.05;;;;;;;;;;5038360;28;20044;-77
2022/01/24 13:38:02;;;;;;;10.02;4.47;;;;;;;;;;5034961;28;20065;-80
2022/01/24 13:40:35;;;;;;;7.65;4.35;;;;;;;;;;5038413;28;20048;-79
2022/01/24 13:43:04;;;;;;;10.73;4.57;;;;;;;;;;5039536;28;20108;-77
2022/01/24 13:45:39;;;;;;;14.50;5.07;;;;;;;;;;5034578;28;20128;-77
2022/01/24 13:48:16;;;;;;;8.40;3.78;;;;;;;;;;5018935;28;20099;-77
2022/01/24 13:50:54;;;;;;;12.25;3.85;;;;;;;;;;5038146;28;20489;-79
2022/01/24 13:53:35;;;;;;;10.52;3.65;;;;;;;;;;5034176;28;20071;-80
2022/01/24 13:56:16;;;;;;;9.55;4.07;;;;;;;;;;5036769;28;20054;-77
2022/01/24 13:58:58;;;;;;;9.70;3.60;;;;;;;;;;5031138;28;20128;-77
2022/01/24 14:01:28;;;;;;;7.65;3.63;;;;;;;;;;5036761;28;20041;-79
2022/01/24 14:04:03;;;;;;;5.82;2.70;;;;;;;;;;5033727;28;20463;-77
2022/01/24 14:06:37;;;;;;;8.80;2.95;;;;;;;;;;5034715;28;20040;-77
2022/01/24 14:09:08;;;;;;;9.23;3.15;;;;;;;;;;5030527;28;20069;-77
2022/01/24 14:11:47;;;;;;;5.65;3.50;;;;;;;;;;5033223;28;20069;-79
2022/01/24 14:14:17;;;;;;;10.68;3.97;;;;;;;;;;5033458;28;20042;-80
2022/01/24 14:17:09;;;;;;;8.63;3.95;;;;;;;;;;5016720;28;20409;-80
2022/01/24 14:19:39;;;;;;;14.70;4.03;;;;;;;;;;5035373;28;20492;-80
2022/01/24 14:22:12;;;;;;;7.53;4.10;;;;;;;;;;5036976;28;20121;-78
2022/01/24 14:24:55;;;;;;;9.93;4.38;;;;;;;;;;5038215;28;20219;-77
2022/01/24 14:27:42;;;;;;;10.63;3.65;;;;;;;;;;5043400;28;20116;-80
2022/01/24 14:30:34;;;;;;;9.27;3.47;;;;;;;;;;5043506;28;20471;-81
2022/01/24 14:33:18;;;;;;;8.40;3.30;;;;;;;;;;5024951;28;20051;-76
2022/01/24 14:35:53;;;;;;;12.23;3.10;;;;;;;;;;5035337;28;20113;-78
2022/01/24 14:38:39;;;;;;;8.48;3.00;;;;;;;;;;5035159;28;20380;-81
2022/01/24 14:41:07;;;;;;;9.25;3.38;;;;;;;;;;5037437;28;20056;-87
2022/01/24 14:46:27;;;;;;;4.60;2.70;;;;;;;;;;5042756;28;20041;-81
2022/01/24 14:49:00;;;;;;;6.15;3.00;;;;;;;;;;5032098;28;20036;-78
2022/01/24 14:51:30;;;;;;;6.85;3.30;;;;;;;;;;5032854;28;20041;-78
2022/01/24 14:54:02;;;;;;;9.77;3.85;;;;;;;;;;5031005;28;20116;-80
2022/01/24 14:56:34;;;;;;;8.18;3.50;;;;;;;;;;5022500;28;20049;-76
2022/01/24 14:59:02;;;;;;;10.35;3.25;;;;;;;;;;5033141;28;20393;-76
2022/01/24 15:01:30;;;;;;;6.10;3.30;;;;;;;;;;5030838;28;20060;-78
2022/01/24 15:03:59;;;;;;;5.22;3.15;;;;;;;;;;5037886;28;20041;-75
2022/01/24 15:06:28;;;;;;;7.40;3.38;;;;;;;;;;5030632;28;20049;-75
2022/01/24 15:09:03;;;;;;;12.18;4.72;;;;;;;;;;5033478;28;20045;-78
2022/01/24 15:11:32;;;;;;;6.40;3.63;;;;;;;;;;5030512;28;20533;-75
2022/01/24 15:14:08;;;;;;;6.20;2.97;;;;;;;;;;5031120;28;20046;-78
2022/01/24 15:25:20;;;;;;;16.67;5.00;;;;;;;;;;5034653;28;20049;-82
2022/01/24 15:27:54;;;;;;;7.80;3.50;;;;;;;;;;5040395;28;20025;-83
2022/01/24 15:30:22;;;;;;;7.97;4.38;;;;;;;;;;5039451;28;20046;-76
2022/01/24 15:33:01;;;;;;;8.30;4.10;;;;;;;;;;5043936;28;20069;-82
2022/01/24 15:35:30;;;;;;;15.45;6.60;;;;;;;;;;5038220;28;20039;-77
2022/01/24 15:38:04;;;;;;;8.98;4.68;;;;;;;;;;5034377;28;20133;-83
2022/01/24 15:40:35;;;;;;;11.38;5.13;;;;;;;;;;5038333;28;20514;-76
2022/01/24 15:48:26;;;;;;;9.55;4.80;;;;;;;;;;5035874;28;20075;-73
2022/01/24 15:50:58;;;;;;;9.82;5.78;;;;;;;;;;5034037;28;20116;-73
2022/01/24 15:53:26;;;;;;;8.43;5.20;;;;;;;;;;5039499;28;20112;-76
2022/01/24 15:58:51;;;;;;;9.73;5.93;;;;;;;;;;5027301;28;20053;-76
2022/01/24 16:01:18;;;;;;;12.57;6.25;;;;;;;;;;5033919;28;20041;-75
2022/01/24 16:03:47;;;;;;;10.15;5.10;;;;;;;;;;5031710;28;20045;-77
2022/01/24 16:06:15;;;;;;;9.15;5.43;;;;;;;;;;5016995;28;20368;-77
2022/01/24 16:08:42;;;;;;;9.43;5.25;;;;;;;;;;5031243;28;20033;-74
2022/01/24 16:11:11;;;;;;;14.18;6.10;;;;;;;;;;5030536;28;20033;-83
2022/01/24 16:13:39;;;;;;;11.82;6.03;;;;;;;;;;5041839;28;20116;-74
2022/01/24 16:16:09;;;;;;;17.85;7.70;;;;;;;;;;5034886;28;20041;-74
2022/01/24 16:18:40;;;;;;;14.15;7.20;;;;;;;;;;5038181;28;20087;-76
2022/01/24 16:21:40;;;;;;;11.07;8.10;;;;;;;;;;5039723;28;20088;-75
2022/01/24 16:26:44;;;;;;;11.50;7.30;;;;;;;;;;5038396;28;20041;-77
2022/01/24 16:29:12;;;;;;;8.43;5.60;;;;;;;;;;5044245;28;20124;-78
2022/01/24 16:31:42;;;;;;;10.07;6.82;;;;;;;;;;5049209;28;20036;-78
2022/01/24 16:34:11;;;;;;;9.63;6.70;;;;;;;;;;5051902;28;20068;-77
2022/01/24 16:36:39;;;;;;;11.18;6.38;;;;;;;;;;5035400;28;20040;-76
2022/01/24 16:39:08;;;;;;;13.07;6.00;;;;;;;;;;5053530;28;20045;-77
2022/01/24 16:41:41;;;;;;;12.95;5.90;;;;;;;;;;5034389;28;20513;-77
2022/01/24 16:47:03;;;;;;;11.07;6.45;;;;;;;;;;5047857;28;20475;-75
2022/01/24 16:49:31;;;;;;;13.05;6.50;;;;;;;;;;5048853;28;20100;-75
2022/01/24 16:52:00;;;;;;;15.07;6.70;;;;;;;;;;5033158;28;20453;-77
2022/01/24 16:54:31;;;;;;;10.50;7.20;;;;;;;;;;5053494;28;20470;-75
2022/01/24 16:57:02;;;;;;;16.20;8.48;;;;;;;;;;5052133;28;20493;-74
2022/01/24 16:59:32;;;;;;;14.82;7.95;;;;;;;;;;5051756;28;20049;-77
2022/01/24 17:02:03;;;;;;;12.02;7.00;;;;;;;;;;5049012;28;20048;-77
2022/01/24 17:04:34;;;;;;;12.15;8.00;;;;;;;;;;5050634;28;20044;-77
2022/01/24 17:07:02;;;;;;;17.52;8.30;;;;;;;;;;5052301;28;20045;-74
2022/01/24 17:09:30;;;;;;;14.98;7.72;;;;;;;;;;5033987;28;20492;-76
2022/01/24 17:12:01;;;;;;;16.55;7.80;;;;;;;;;;5052052;28;20045;-76
2022/01/24 17:14:33;;;;;;;15.20;7.78;;;;;;;;;;5050933;28;20052;-75
2022/01/24 17:17:01;;;;;;;14.57;7.80;;;;;;;;;;5034339;28;20139;-75
2022/01/24 17:19:30;;;;;;;12.63;7.70;;;;;;;;;;5051953;28;20040;-75
2022/01/24 17:22:00;;;;;;;10.57;6.40;;;;;;;;;;5051569;28;20492;-75
2022/01/24 17:24:29;;;;;;;10.77;7.30;;;;;;;;;;5051907;28;20057;-75
2022/01/24 17:27:17;;;;;;;12.10;7.28;;;;;;;;;;5051987;28;20488;-75
2022/01/24 17:29:45;;;;;;;13.77;8.07;;;;;;;;;;5032878;28;20468;-76
2022/01/24 17:32:19;;;;;;;15.50;7.95;;;;;;;;;;5050890;28;20041;-75
2022/01/24 17:34:49;;;;;;;13.35;7.55;;;;;;;;;;5051905;28;20065;-77
2022/01/24 17:37:18;;;;;;;21.67;11.35;;;;;;;;;;5052301;28;20503;-77
2022/01/24 17:39:47;;;;;;;27.60;14.10;;;;;;;;;;5052080;28;20044;-75
2022/01/24 17:42:15;;;;;;;14.32;9.40;;;;;;;;;;5052596;28;20044;-76
2022/01/24 17:44:47;;;;;;;20.80;11.35;;;;;;;;;;5052155;28;20041;-76